createdAt,value
2023-04-29T00:02:19.191Z,101481.78
2023-04-29T00:05:05.683Z,101480.72
2023-04-29T00:07:51.043Z,101469.19
2023-04-29T00:10:36.683Z,101473.28
2023-04-29T00:13:22.533Z,101479.28
2023-04-29T00:16:10.408Z,101479.97
2023-04-29T00:18:55.776Z,101481.59
2023-04-29T00:21:41.537Z,101478.88
2023-04-29T00:24:28.049Z,101491.13
2023-04-29T00:27:13.810Z,101493.03
2023-04-29T00:29:59.524Z,101484.44
2023-04-29T00:32:45.622Z,101494.69
2023-04-29T00:35:31.281Z,101484.06
2023-04-29T00:38:16.562Z,101486.44
2023-04-29T00:41:03.249Z,101483.47
2023-04-29T00:43:48.861Z,101487.72
2023-04-29T00:46:35.054Z,101483.28
2023-04-29T00:49:21.575Z,101481.59
2023-04-29T00:52:10.290Z,101483.16
2023-04-29T00:54:56.816Z,101481.50
2023-04-29T00:57:42.711Z,101488.34
2023-04-29T01:00:29.088Z,101484.09
2023-04-29T01:03:15.136Z,101490.22
2023-04-29T01:06:16.865Z,101490.06
2023-04-29T01:09:20.505Z,101491.56
2023-04-29T01:12:14.005Z,101489.53
2023-04-29T01:15:06.599Z,101493.78
2023-04-29T01:18:00.446Z,101492.16
2023-04-29T01:20:46.953Z,101496.00
2023-04-29T01:23:32.489Z,101492.66
2023-04-29T01:26:19.160Z,101484.72
2023-04-29T01:30:10.815Z,101493.34
2023-04-29T01:33:03.526Z,101499.44
2023-04-29T01:35:55.642Z,101496.66
2023-04-29T01:39:14.891Z,101498.72
2023-04-29T01:42:23.201Z,101491.44
2023-04-29T01:45:11.344Z,101495.59
2023-04-29T01:47:58.155Z,101487.72
2023-04-29T01:50:44.619Z,101495.63
2023-04-29T01:53:31.973Z,101506.22
2023-04-29T01:56:17.462Z,101496.63
2023-04-29T01:59:17.828Z,101496.38
2023-04-29T02:02:23.693Z,101502.63
2023-04-29T02:05:17.336Z,101501.03
2023-04-29T02:08:11.337Z,101500.94
2023-04-29T02:11:00.644Z,101502.72
2023-04-29T02:13:57.507Z,101501.97
2023-04-29T02:16:46.073Z,101498.47
2023-04-29T02:19:32.421Z,101498.47
2023-04-29T02:22:18.341Z,101499.41
2023-04-29T02:25:03.906Z,101502.13
2023-04-29T02:27:50.472Z,101498.47
2023-04-29T02:30:35.740Z,101496.75
2023-04-29T02:33:21.529Z,101492.44
2023-04-29T02:36:06.992Z,101502.59
2023-04-29T02:38:55.382Z,101504.06
2023-04-29T02:41:42.255Z,101496.81
2023-04-29T02:44:31.549Z,101501.03
2023-04-29T02:47:17.473Z,101515.03
2023-04-29T02:50:04.868Z,101511.09
2023-04-29T02:52:51.898Z,101514.72
2023-04-29T02:55:37.600Z,101524.03
2023-04-29T02:58:27.260Z,101515.25
2023-04-29T03:01:12.861Z,101519.78
2023-04-29T03:03:58.501Z,101522.16
2023-04-29T03:06:44.465Z,101528.69
2023-04-29T03:09:30.868Z,101528.03
2023-04-29T03:12:16.928Z,101524.44
2023-04-29T03:15:05.710Z,101526.34
2023-04-29T03:17:51.430Z,101538.69
2023-04-29T03:20:37.065Z,101543.09
2023-04-29T03:23:23.862Z,101547.53
2023-04-29T03:26:09.220Z,101555.44
2023-04-29T03:28:55.852Z,101552.31
2023-04-29T03:31:41.917Z,101561.88
2023-04-29T03:34:27.761Z,101558.53
2023-04-29T03:37:35.583Z,101550.69
2023-04-29T03:40:34.955Z,101550.31
2023-04-29T03:43:20.438Z,101547.28
2023-04-29T03:46:06.176Z,101556.25
2023-04-29T03:48:56.046Z,101553.69
2023-04-29T03:51:42.319Z,101551.38
2023-04-29T03:54:32.957Z,101541.25
2023-04-29T03:57:18.780Z,101544.78
2023-04-29T04:00:06.097Z,101543.19
2023-04-29T04:02:59.430Z,101544.16
2023-04-29T04:05:45.890Z,101544.22
2023-04-29T04:08:34.271Z,101547.75
2023-04-29T04:11:26.641Z,101547.81
2023-04-29T04:14:19.052Z,101547.88
2023-04-29T04:17:04.959Z,101547.13
2023-04-29T04:19:51.163Z,101547.16
2023-04-29T04:22:36.774Z,101548.06
2023-04-29T04:25:34.363Z,101551.66
2023-04-29T04:28:40.359Z,101555.28
2023-04-29T04:31:31.334Z,101553.72
2023-04-29T04:34:16.562Z,101551.38
2023-04-29T04:37:04.129Z,101557.69
2023-04-29T04:39:50.717Z,101560.41
2023-04-29T04:42:37.140Z,101550.94
2023-04-29T04:45:23.125Z,101550.13
2023-04-29T04:48:10.038Z,101551.84
2023-04-29T04:50:57.824Z,101551.94
2023-04-29T04:53:43.340Z,101558.00
2023-04-29T04:56:37.906Z,101554.53
2023-04-29T04:59:25.015Z,101553.66
2023-04-29T05:02:10.770Z,101557.09
2023-04-29T05:04:56.700Z,101555.31
2023-04-29T05:07:45.458Z,101565.75
2023-04-29T05:10:31.718Z,101565.88
2023-04-29T05:13:20.561Z,101564.28
2023-04-29T05:16:06.720Z,101562.66
2023-04-29T05:19:00.405Z,101564.50
2023-04-29T05:21:49.968Z,101575.84
2023-04-29T05:24:35.189Z,101571.56
2023-04-29T05:27:21.222Z,101571.69
2023-04-29T05:30:07.412Z,101575.34
2023-04-29T05:32:52.781Z,101575.47
2023-04-29T05:35:40.192Z,101583.50
2023-04-29T05:38:29.124Z,101598.47
2023-04-29T05:41:24.216Z,101598.69
2023-04-29T05:44:29.828Z,101601.47
2023-04-29T05:47:15.340Z,101607.72
2023-04-29T05:50:01.675Z,101607.88
2023-04-29T05:52:47.303Z,101610.53
2023-04-29T05:55:32.791Z,101612.28
2023-04-29T05:58:18.632Z,101609.63
2023-04-29T06:01:03.898Z,101605.31
2023-04-29T06:03:50.585Z,101609.69
2023-04-29T06:06:57.915Z,101607.06
2023-04-29T06:10:04.429Z,101607.94
2023-04-29T06:12:51.909Z,101615.84
2023-04-29T06:15:37.713Z,101617.63
2023-04-29T06:18:23.587Z,101612.41
2023-04-29T06:21:08.828Z,101617.66
2023-04-29T06:23:55.349Z,101621.22
2023-04-29T06:26:41.073Z,101626.53
2023-04-29T06:29:26.361Z,101625.72
2023-04-29T06:32:14.023Z,101627.53
2023-04-29T06:35:00.025Z,101638.03
2023-04-29T06:38:04.618Z,101642.50
2023-04-29T06:41:01.963Z,101646.06
2023-04-29T06:44:12.164Z,101647.00
2023-04-29T06:47:09.808Z,101661.03
2023-04-29T06:50:03.223Z,101661.09
2023-04-29T06:52:49.397Z,101666.41
2023-04-29T06:55:36.298Z,101671.69
2023-04-29T06:58:22.231Z,101671.72
2023-04-29T07:01:08.660Z,101677.06
2023-04-29T07:03:54.264Z,101686.72
2023-04-29T07:06:39.853Z,101683.31
2023-04-29T07:09:27.644Z,101686.00
2023-04-29T07:12:13.308Z,101687.81
2023-04-29T07:14:59.890Z,101687.91
2023-04-29T07:17:45.466Z,101694.09
2023-04-29T07:20:31.134Z,101697.69
2023-04-29T07:23:16.834Z,101690.81
2023-04-29T07:26:16.385Z,101690.91
2023-04-29T07:29:03.712Z,101692.69
2023-04-29T07:31:49.140Z,101689.22
2023-04-29T07:34:34.544Z,101690.97
2023-04-29T07:37:19.792Z,101684.91
2023-04-29T07:40:07.561Z,101690.13
2023-04-29T07:42:53.150Z,101677.06
2023-04-29T07:45:38.621Z,101680.59
2023-04-29T07:48:24.275Z,101682.34
2023-04-29T07:51:14.571Z,101686.69
2023-04-29T07:54:01.155Z,101686.72
2023-04-29T07:56:46.870Z,101685.88
2023-04-29T07:59:32.858Z,101688.56
2023-04-29T08:02:18.439Z,101685.09
2023-04-29T08:05:06.239Z,101685.97
2023-04-29T08:07:52.283Z,101683.41
2023-04-29T08:10:41.029Z,101687.81
2023-04-29T08:13:27.651Z,101679.97
2023-04-29T08:16:13.683Z,101682.63
2023-04-29T08:18:59.336Z,101688.75
2023-04-29T08:21:44.753Z,101673.03
2023-04-29T08:24:30.461Z,101677.41
2023-04-29T08:27:16.076Z,101672.22
2023-04-29T08:30:01.604Z,101675.72
2023-04-29T08:32:47.005Z,101680.09
2023-04-29T08:35:32.337Z,101676.56
2023-04-29T08:38:17.625Z,101670.44
2023-04-29T08:41:03.071Z,101674.78
2023-04-29T08:43:48.554Z,101672.16
2023-04-29T08:46:34.283Z,101677.41
2023-04-29T08:49:20.028Z,101659.91
2023-04-29T08:52:05.357Z,101659.03
2023-04-29T08:54:51.437Z,101656.38
2023-04-29T08:57:40.726Z,101663.38
2023-04-29T09:00:26.498Z,101663.34
2023-04-29T09:03:19.721Z,101659.84
2023-04-29T09:06:09.886Z,101659.81
2023-04-29T09:08:55.612Z,101653.63
2023-04-29T09:11:41.445Z,101650.09
2023-04-29T09:14:28.539Z,101656.22
2023-04-29T09:17:16.365Z,101669.31
2023-04-29T09:20:01.704Z,101664.06
2023-04-29T09:22:52.049Z,101664.84
2023-04-29T09:25:37.856Z,101673.53
2023-04-29T09:28:24.255Z,101676.84
2023-04-29T09:31:10.972Z,101677.56
2023-04-29T09:33:58.796Z,101652.94
2023-04-29T09:36:45.907Z,101650.25
2023-04-29T09:39:39.881Z,101650.97
2023-04-29T09:42:25.436Z,101649.97
2023-04-29T09:45:12.069Z,101639.34
2023-04-29T09:48:08.851Z,101635.53
2023-04-29T09:51:03.452Z,101637.13
2023-04-29T09:53:49.245Z,101640.38
2023-04-29T09:57:07.824Z,101629.66
2023-04-29T09:59:53.470Z,101621.69
2023-04-29T10:02:46.882Z,101643.38
2023-04-29T10:05:32.508Z,101621.41
2023-04-29T10:08:18.704Z,101616.16
2023-04-29T10:11:04.775Z,101617.78
2023-04-29T10:13:52.313Z,101618.47
2023-04-29T10:16:46.715Z,101613.75
2023-04-29T10:19:38.877Z,101620.41
2023-04-29T10:22:39.707Z,101614.28
2023-04-29T10:25:28.001Z,101611.13
2023-04-29T10:28:16.840Z,101623.97
2023-04-29T10:31:03.646Z,101631.31
2023-04-29T10:33:50.513Z,101637.66
2023-04-29T10:36:38.049Z,101645.72
2023-04-29T10:39:46.591Z,101647.44
2023-04-29T10:42:45.215Z,101632.44
2023-04-29T10:45:32.873Z,101636.75
2023-04-29T10:48:22.029Z,101634.16
2023-04-29T10:51:07.476Z,101643.09
2023-04-29T10:54:15.273Z,101644.06
2023-04-29T10:57:00.712Z,101653.75
2023-04-29T10:59:46.312Z,101658.22
2023-04-29T11:02:31.671Z,101655.69
2023-04-29T11:05:32.164Z,101654.00
2023-04-29T11:08:24.139Z,101635.66
2023-04-29T11:11:10.438Z,101645.47
2023-04-29T11:13:56.220Z,101648.25
2023-04-29T11:16:52.636Z,101651.00
2023-04-29T11:19:46.717Z,101657.13
2023-04-29T11:22:34.000Z,101661.41
2023-04-29T11:25:19.689Z,101658.72
2023-04-29T11:28:06.173Z,101659.56
2023-04-29T11:30:51.737Z,101660.38
2023-04-29T11:33:37.348Z,101657.75
2023-04-29T11:36:22.686Z,101646.44
2023-04-29T11:39:08.476Z,101645.56
2023-04-29T11:42:04.503Z,101652.47
2023-04-29T11:44:54.670Z,101639.16
2023-04-29T11:47:45.709Z,101651.31
2023-04-29T11:50:32.870Z,101636.47
2023-04-29T11:53:22.237Z,101635.47
2023-04-29T11:56:10.497Z,101636.09
2023-04-29T11:58:58.098Z,101623.56
2023-04-29T12:01:43.500Z,101617.78
2023-04-29T12:04:29.286Z,101611.25
2023-04-29T12:07:18.254Z,101613.06
2023-04-29T12:10:04.001Z,101603.66
2023-04-29T12:12:49.880Z,101610.00
2023-04-29T12:15:35.768Z,101602.88
2023-04-29T12:18:23.494Z,101600.81
2023-04-29T12:21:09.233Z,101589.84
2023-04-29T12:23:54.964Z,101600.97
2023-04-29T12:26:41.417Z,101593.78
2023-04-29T12:29:27.101Z,101588.97
2023-04-29T12:32:33.409Z,101591.19
2023-04-29T12:35:19.022Z,101594.69
2023-04-29T12:38:04.404Z,101595.63
2023-04-29T12:40:51.109Z,101595.06
2023-04-29T12:43:37.400Z,101588.88
2023-04-29T12:46:23.858Z,101578.84
2023-04-29T12:49:09.754Z,101576.50
2023-04-29T12:51:54.986Z,101583.94
2023-04-29T12:54:50.803Z,101579.34
2023-04-29T12:57:37.932Z,101575.94
2023-04-29T13:00:23.506Z,101585.34
2023-04-29T13:03:09.636Z,101576.88
2023-04-29T13:05:55.440Z,101579.28
2023-04-29T13:08:40.814Z,101580.56
2023-04-29T13:11:32.010Z,101581.16
2023-04-29T13:14:19.449Z,101571.91
2023-04-29T13:17:05.049Z,101577.41
2023-04-29T13:19:52.097Z,101571.59
2023-04-29T13:22:38.172Z,101578.13
2023-04-29T13:25:23.988Z,101576.00
2023-04-29T13:28:09.235Z,101576.28
2023-04-29T13:30:54.694Z,101576.78
2023-04-29T13:33:40.279Z,101569.00
2023-04-29T13:36:27.645Z,101564.50
2023-04-29T13:39:14.465Z,101561.66
2023-04-29T13:42:00.522Z,101558.81
2023-04-29T13:44:52.673Z,101564.41
2023-04-29T13:48:00.330Z,101554.69
2023-04-29T13:54:10.653Z,101563.25
2023-04-29T14:02:24.795Z,101545.03
2023-04-29T14:05:11.785Z,101536.38
2023-04-29T14:07:57.019Z,101532.81
2023-04-29T14:10:42.703Z,101534.44
2023-04-29T14:13:29.367Z,101524.13
2023-04-29T14:16:14.811Z,101542.78
2023-04-29T14:19:03.634Z,101541.03
2023-04-29T14:21:49.260Z,101537.75
2023-04-29T14:24:34.881Z,101542.13
2023-04-29T14:27:21.736Z,101539.63
2023-04-29T14:30:07.751Z,101527.50
2023-04-29T14:32:53.328Z,101528.31
2023-04-29T14:35:38.606Z,101523.19
2023-04-29T14:38:24.075Z,101524.06
2023-04-29T14:41:10.008Z,101518.66
2023-04-29T14:43:55.770Z,101513.78
2023-04-29T14:46:42.256Z,101511.28
2023-04-29T14:49:30.265Z,101519.56
2023-04-29T14:52:17.134Z,101511.25
2023-04-29T14:55:03.079Z,101516.97
2023-04-29T14:57:48.820Z,101521.69
2023-04-29T15:00:34.430Z,101525.41
2023-04-29T15:03:22.782Z,101520.13
2023-04-29T15:06:08.826Z,101531.53
2023-04-29T15:08:54.359Z,101526.75
2023-04-29T15:11:39.744Z,101530.72
2023-04-29T15:14:24.961Z,101523.25
2023-04-29T15:17:10.452Z,101528.06
2023-04-29T15:19:55.917Z,101535.34
2023-04-29T15:22:41.676Z,101532.88
2023-04-29T15:25:27.728Z,101536.41
2023-04-29T15:28:13.219Z,101541.72
2023-04-29T15:31:01.650Z,101535.44
2023-04-29T15:33:48.420Z,101536.88
2023-04-29T15:36:34.635Z,101530.59
2023-04-29T15:39:20.194Z,101526.25
2023-04-29T15:42:06.110Z,101515.38
2023-04-29T15:44:51.458Z,101517.06
2023-04-29T15:47:37.057Z,101517.56
2023-04-29T15:50:22.360Z,101506.19
2023-04-29T15:53:07.743Z,101505.22
2023-04-29T15:55:54.666Z,101507.47
2023-04-29T15:58:40.048Z,101502.03
2023-04-29T16:01:28.277Z,101510.53
2023-04-29T16:04:13.505Z,101504.84
2023-04-29T16:06:59.150Z,101503.38
2023-04-29T16:09:44.756Z,101501.69
2023-04-29T16:12:30.442Z,101492.66
2023-04-29T16:15:16.020Z,101483.34
2023-04-29T16:18:01.928Z,101478.44
2023-04-29T16:20:47.409Z,101481.56
2023-04-29T16:23:32.938Z,101478.00
2023-04-29T16:26:19.073Z,101478.53
2023-04-29T16:29:05.061Z,101471.75
2023-04-29T16:31:50.709Z,101464.56
2023-04-29T16:34:37.234Z,101465.31
2023-04-29T16:37:22.870Z,101462.06
2023-04-29T16:40:09.052Z,101462.75
2023-04-29T16:42:56.899Z,101458.75
2023-04-29T16:45:43.391Z,101462.28
2023-04-29T16:48:29.645Z,101467.19
2023-04-29T16:51:15.172Z,101461.97
2023-04-29T16:54:00.526Z,101455.50
2023-04-29T16:56:46.297Z,101457.03
2023-04-29T16:59:33.640Z,101455.72
2023-04-29T17:02:19.179Z,101458.63
2023-04-29T17:05:05.041Z,101464.16
2023-04-29T17:07:50.790Z,101474.94
2023-04-29T17:10:36.368Z,101462.81
2023-04-29T17:13:22.024Z,101472.53
2023-04-29T17:16:08.077Z,101476.22
2023-04-29T17:18:53.490Z,101494.03
2023-04-29T17:21:39.030Z,101511.81
2023-04-29T17:24:25.608Z,101536.63
2023-04-29T17:27:12.981Z,101554.47
2023-04-29T17:29:58.457Z,101573.44
2023-04-29T17:32:44.577Z,101566.84
2023-04-29T17:35:34.973Z,101558.22
2023-04-29T17:38:20.556Z,101575.81
2023-04-29T17:41:06.066Z,101578.47
2023-04-29T17:43:54.353Z,101574.13
2023-04-29T17:46:40.726Z,101582.91
2023-04-29T17:49:26.327Z,101583.75
2023-04-29T17:52:12.767Z,101583.78
2023-04-29T17:54:58.208Z,101590.75
2023-04-29T17:57:43.725Z,101592.50
2023-04-29T18:00:29.253Z,101592.47
2023-04-29T18:03:14.947Z,101602.09
2023-04-29T18:06:00.799Z,101595.97
2023-04-29T18:08:46.297Z,101598.56
2023-04-29T18:11:31.771Z,101597.66
2023-04-29T18:14:17.393Z,101600.22
2023-04-29T18:17:02.853Z,101605.38
2023-04-29T18:19:49.758Z,101619.25
2023-04-29T18:22:35.104Z,101614.88
2023-04-29T18:25:20.835Z,101620.13
2023-04-29T18:28:22.965Z,101618.38
2023-04-29T18:31:09.918Z,101622.81
2023-04-29T18:33:55.450Z,101625.44
2023-04-29T18:36:43.986Z,101620.28
2023-04-29T18:39:29.563Z,101615.06
2023-04-29T18:42:14.712Z,101611.59
2023-04-29T18:45:00.180Z,101615.19
2023-04-29T18:47:45.660Z,101607.38
2023-04-29T18:50:31.216Z,101611.78
2023-04-29T18:53:16.872Z,101608.31
2023-04-29T18:56:02.393Z,101619.69
2023-04-29T18:58:48.172Z,101623.19
2023-04-29T19:01:33.860Z,101618.81
2023-04-29T19:04:19.248Z,101627.59
2023-04-29T19:07:06.194Z,101625.84
2023-04-29T19:09:51.873Z,101611.88
2023-04-29T19:12:37.894Z,101614.53
2023-04-29T19:15:27.935Z,101604.03
2023-04-29T19:18:13.439Z,101609.25
2023-04-29T19:20:58.916Z,101611.00
2023-04-29T19:23:44.603Z,101611.84
2023-04-29T19:26:32.867Z,101610.09
2023-04-29T19:29:20.213Z,101610.97
2023-04-29T19:32:05.694Z,101606.59
2023-04-29T19:34:51.063Z,101608.31
2023-04-29T19:37:36.501Z,101609.16
2023-04-29T19:40:21.977Z,101609.16
2023-04-29T19:43:07.293Z,101607.34
2023-04-29T19:45:52.621Z,101606.44
2023-04-29T19:48:38.232Z,101609.00
2023-04-29T19:51:23.822Z,101602.84
2023-04-29T19:54:09.737Z,101611.53
2023-04-29T19:56:55.085Z,101614.97
2023-04-29T19:59:40.697Z,101630.66
2023-04-29T20:02:26.551Z,101628.84
2023-04-29T20:05:13.330Z,101631.44
2023-04-29T20:07:58.880Z,101629.69
2023-04-29T20:10:44.274Z,101625.34
2023-04-29T20:13:30.089Z,101634.97
2023-04-29T20:16:16.262Z,101638.47
2023-04-29T20:19:01.863Z,101639.31
2023-04-29T20:21:47.324Z,101631.44
2023-04-29T20:24:32.680Z,101638.44
2023-04-29T20:27:18.090Z,101641.91
2023-04-29T20:30:03.816Z,101656.75
2023-04-29T20:32:49.295Z,101658.53
2023-04-29T20:35:34.624Z,101655.94
2023-04-29T20:38:20.181Z,101655.94
2023-04-29T20:41:06.058Z,101655.97
2023-04-29T20:43:52.125Z,101652.47
2023-04-29T20:46:38.061Z,101653.34
2023-04-29T20:49:24.987Z,101659.44
2023-04-29T20:52:10.673Z,101655.94
2023-04-29T20:54:57.104Z,101654.19
2023-04-29T20:57:42.514Z,101659.44
2023-04-29T21:00:27.914Z,101658.56
2023-04-29T21:03:13.307Z,101657.72
2023-04-29T21:05:58.645Z,101657.72
2023-04-29T21:08:44.360Z,101662.06
2023-04-29T21:11:29.798Z,101671.69
2023-04-29T21:14:15.279Z,101669.91
2023-04-29T21:17:00.837Z,101665.56
2023-04-29T21:19:46.547Z,101668.09
2023-04-29T21:22:32.130Z,101663.75
2023-04-29T21:25:17.778Z,101668.97
2023-04-29T21:28:04.009Z,101666.34
2023-04-29T21:30:49.612Z,101659.34
2023-04-29T21:33:35.097Z,101662.81
2023-04-29T21:36:20.669Z,101653.19
2023-04-29T21:39:06.635Z,101659.25
2023-04-29T21:41:52.049Z,101660.09
2023-04-29T21:44:38.301Z,101664.41
2023-04-29T21:47:24.154Z,101673.97
2023-04-29T21:50:10.479Z,101673.94
2023-04-29T21:52:56.185Z,101685.25
2023-04-29T21:55:41.886Z,101690.47
2023-04-29T21:58:27.436Z,101680.91
2023-04-29T22:01:40.661Z,101685.22
2023-04-29T22:04:28.313Z,101686.13
2023-04-29T22:07:14.295Z,101680.91
2023-04-29T22:09:59.940Z,101668.69
2023-04-29T22:12:45.521Z,101673.91
2023-04-29T22:15:31.100Z,101666.03
2023-04-29T22:18:16.464Z,101665.13
2023-04-29T22:21:01.761Z,101666.00
2023-04-29T22:23:47.221Z,101666.84
2023-04-29T22:26:32.535Z,101663.34
2023-04-29T22:29:19.334Z,101669.47
2023-04-29T22:32:05.505Z,101665.94
2023-04-29T22:34:51.473Z,101659.84
2023-04-29T22:37:36.755Z,101656.38
2023-04-29T22:40:22.024Z,101660.72
2023-04-29T22:43:07.532Z,101661.59
2023-04-29T22:45:56.953Z,101663.31
2023-04-29T22:48:42.429Z,101665.03
2023-04-29T22:51:27.822Z,101666.75
2023-04-29T22:54:13.127Z,101665.03
2023-04-29T22:56:58.713Z,101663.31
2023-04-29T22:59:44.351Z,101665.03
2023-04-29T23:02:30.091Z,101662.41
2023-04-29T23:05:15.517Z,101654.56
2023-04-29T23:08:01.459Z,101657.19
2023-04-29T23:10:50.628Z,101651.88
2023-04-29T23:13:36.310Z,101651.03
2023-04-29T23:16:21.697Z,101659.72
2023-04-29T23:19:07.620Z,101649.25
2023-04-29T23:21:52.955Z,101652.75
2023-04-29T23:24:38.373Z,101645.75
2023-04-29T23:27:23.780Z,101641.38
2023-04-29T23:30:09.778Z,101644.84
2023-04-29T23:32:55.476Z,101644.84
2023-04-29T23:35:41.224Z,101643.16
2023-04-29T23:38:26.719Z,101648.38
2023-04-29T23:41:11.979Z,101639.69
2023-04-29T23:44:01.075Z,101645.78
2023-04-29T23:46:46.451Z,101651.84
2023-04-29T23:49:31.764Z,101647.50
2023-04-29T23:52:17.018Z,101644.91
2023-04-29T23:55:03.212Z,101647.47
2023-04-29T23:57:48.529Z,101644.84
